Time;durP1;ratioP1;P1;durP2;ratioP2;P2;SDS_P1;SDS_P2;PMS_P1;PMS_P2;Temp;Humidity;BMP_temperature;BMP_pressure;BME280_temperature;BME280_humidity;BME280_pressure;Samples;Min_cycle;Max_cycle;Signal;HPM_P1;HPM_P2
2023/01/14 00:00:05;;;;;;;23.52;11.53;;;;;;;1.22;68.09;101568.80;1740662;81;21292;-56
2023/01/14 00:03:09;;;;;;;28.95;10.95;;;;;;;1.21;68.03;101567.92;1740690;81;21240;-56
2023/01/14 00:06:16;;;;;;;28.05;12.03;;;;;;;1.26;68.10;101569.88;1740458;81;21252;-56
2023/01/14 00:09:22;;;;;;;26.77;12.30;;;;;;;1.29;68.12;101565.66;1740121;82;21209;-55
2023/01/14 00:12:27;;;;;;;38.25;12.78;;;;;;;1.31;67.99;101571.84;1773225;80;21182;-54
2023/01/14 00:15:34;;;;;;;23.92;12.13;;;;;;;1.33;67.96;101567.20;1740791;82;21410;-54
2023/01/14 00:18:42;;;;;;;34.83;13.25;;;;;;;1.33;67.86;101566.36;1740668;82;21268;-56
2023/01/14 00:21:47;;;;;;;41.68;13.05;;;;;;;1.32;67.86;101572.22;1741028;81;21216;-55
2023/01/14 00:24:54;;;;;;;34.05;12.90;;;;;;;1.34;67.96;101570.78;1775557;79;21253;-55
2023/01/14 00:28:03;;;;;;;26.05;11.90;;;;;;;1.34;67.95;101567.61;1770755;80;21327;-56
2023/01/14 00:31:18;;;;;;;31.55;11.78;;;;;;;1.33;67.83;101573.09;1740648;81;21169;-55
2023/01/14 00:34:24;;;;;;;31.37;11.15;;;;;;;1.32;67.92;101570.88;1734136;82;21268;-55
2023/01/14 00:37:30;;;;;;;35.98;11.85;;;;;;;1.35;68.04;101563.95;1740465;81;21256;-55
2023/01/14 00:40:38;;;;;;;33.70;11.80;;;;;;;1.40;68.11;101570.42;1740558;81;21229;-55
2023/01/14 00:43:48;;;;;;;32.25;11.28;;;;;;;1.42;68.28;101565.34;1740651;81;21181;-55
2023/01/14 00:46:55;;;;;;;23.37;11.13;;;;;;;1.46;68.28;101557.45;1741047;81;21190;-56
2023/01/14 00:50:03;;;;;;;29.57;10.90;;;;;;;1.49;68.17;101549.67;1740662;81;21374;-55
2023/01/14 00:53:10;;;;;;;26.35;12.35;;;;;;;1.51;68.22;101545.03;1740559;81;21220;-56
2023/01/14 00:56:16;;;;;;;32.50;11.60;;;;;;;1.51;68.12;101547.73;1740870;82;21211;-56
2023/01/14 00:59:28;;;;;;;29.95;11.95;;;;;;;1.51;68.12;101546.38;1740589;81;21213;-55
2023/01/14 01:02:35;;;;;;;35.60;12.43;;;;;;;1.52;68.18;101542.74;1740801;81;21265;-56
2023/01/14 01:05:42;;;;;;;31.70;11.05;;;;;;;1.54;68.25;101551.59;1740570;82;21209;-55
2023/01/14 01:08:50;;;;;;;46.15;13.08;;;;;;;1.57;68.25;101550.05;1740535;82;21351;-56
2023/01/14 01:12:00;;;;;;;38.58;13.15;;;;;;;1.54;68.13;101548.42;1740589;82;21753;-55
2023/01/14 01:15:06;;;;;;;40.73;12.07;;;;;;;1.53;68.06;101546.70;1740639;82;21402;-56
2023/01/14 01:18:13;;;;;;;27.07;12.40;;;;;;;1.55;68.12;101548.80;1740616;81;21204;-55
2023/01/14 01:21:20;;;;;;;33.58;12.47;;;;;;;1.55;68.15;101542.05;1740940;81;21216;-55
2023/01/14 01:24:27;;;;;;;29.87;13.32;;;;;;;1.57;68.14;101548.70;1740468;81;21217;-58
2023/01/14 01:27:32;;;;;;;28.98;12.50;;;;;;;1.58;68.08;101549.13;1740503;81;21212;-56
2023/01/14 01:30:38;;;;;;;27.13;11.53;;;;;;;1.55;68.07;101544.75;1740361;80;21217;-55
2023/01/14 01:33:43;;;;;;;34.80;12.78;;;;;;;1.56;68.09;101546.98;1740574;81;21205;-56
2023/01/14 01:36:49;;;;;;;36.85;12.45;;;;;;;1.57;68.10;101545.16;1740246;82;21178;-56
2023/01/14 01:39:54;;;;;;;34.53;12.35;;;;;;;1.58;68.06;101544.19;1741019;81;21189;-56
2023/01/14 01:43:00;;;;;;;31.82;13.10;;;;;;;1.59;68.05;101548.65;1740828;82;21293;-56
2023/01/14 01:46:05;;;;;;;38.45;12.20;;;;;;;1.56;68.00;101542.94;1740416;82;21189;-55
2023/01/14 01:49:31;;;;;;;27.27;13.48;;;;;;;1.55;68.01;101536.66;1741603;82;21216;-55
2023/01/14 01:52:37;;;;;;;41.45;12.70;;;;;;;1.56;68.06;101541.59;1740745;80;21201;-55
2023/01/14 01:55:46;;;;;;;33.15;11.30;;;;;;;1.57;68.06;101541.12;1741014;81;21181;-56
2023/01/14 01:58:51;;;;;;;32.98;12.68;;;;;;;1.57;68.05;101535.72;1740840;81;21181;-56
2023/01/14 02:01:59;;;;;;;31.15;10.30;;;;;;;1.58;68.09;101543.72;1740888;82;21595;-56
2023/01/14 02:05:05;;;;;;;32.00;12.37;;;;;;;1.59;68.08;101539.20;1740898;81;21229;-55
2023/01/14 02:08:12;;;;;;;43.83;11.30;;;;;;;1.55;68.01;101535.81;1775095;80;21193;-55
2023/01/14 02:11:37;;;;;;;37.58;12.30;;;;;;;1.53;67.97;101539.95;1740619;82;21169;-55
2023/01/14 02:15:12;;;;;;;30.77;11.63;;;;;;;1.53;68.09;101535.02;1740611;81;21220;-56
2023/01/14 02:18:31;;;;;;;35.88;11.43;;;;;;;1.55;68.17;101531.27;1740875;82;21233;-55
2023/01/14 02:21:42;;;;;;;40.03;11.50;;;;;;;1.54;68.11;101527.30;1722680;81;21189;-54
2023/01/14 02:25:12;;;;;;;41.53;12.40;;;;;;;1.54;68.13;101528.66;1740968;82;21217;-56
2023/01/14 02:28:47;;;;;;;29.32;11.28;;;;;;;1.53;68.13;101529.16;1740895;81;21193;-55
2023/01/14 02:32:21;;;;;;;28.57;11.45;;;;;;;1.53;68.11;101533.20;1740493;79;21216;-56
2023/01/14 02:35:35;;;;;;;31.10;11.33;;;;;;;1.53;68.12;101527.81;1740743;81;21252;-54
2023/01/14 02:39:21;;;;;;;32.33;11.30;;;;;;;1.52;68.11;101519.81;1775228;79;21256;-55
2023/01/14 02:46:16;;;;;;;35.90;10.90;;;;;;;1.50;68.08;101525.77;1741196;82;21181;-55
2023/01/14 02:49:25;;;;;;;35.50;10.18;;;;;;;1.50;68.11;101533.86;1765732;80;21220;-54
2023/01/14 02:52:31;;;;;;;30.80;12.28;;;;;;;1.47;68.13;101533.54;1780416;80;21178;-55
2023/01/14 02:55:43;;;;;;;33.75;10.45;;;;;;;1.47;68.18;101534.89;1740440;82;21260;-55
2023/01/14 02:59:06;;;;;;;33.15;11.43;;;;;;;1.48;68.19;101526.33;1740752;82;21248;-56
2023/01/14 03:02:55;;;;;;;28.07;10.68;;;;;;;1.47;68.15;101526.80;1740610;81;21512;-55
2023/01/14 03:06:14;;;;;;;26.27;10.60;;;;;;;1.47;68.16;101525.45;1741023;81;21249;-55
2023/01/14 03:09:46;;;;;;;35.15;11.43;;;;;;;1.45;68.06;101512.55;1740630;82;21232;-56
2023/01/14 03:13:12;;;;;;;28.77;11.40;;;;;;;1.38;68.01;101521.95;1741131;81;21326;-56
2023/01/14 03:16:36;;;;;;;28.35;10.43;;;;;;;1.35;68.02;101519.44;1741181;81;21193;-55
2023/01/14 03:19:53;;;;;;;38.30;11.70;;;;;;;1.34;68.11;101524.45;1740492;81;21240;-55
2023/01/14 03:22:59;;;;;;;30.30;11.45;;;;;;;1.33;68.12;101530.78;1740737;82;21264;-55
2023/01/14 03:26:05;;;;;;;27.87;11.43;;;;;;;1.29;68.08;101535.11;1740825;82;21197;-57
2023/01/14 03:29:16;;;;;;;34.25;12.18;;;;;;;1.30;68.13;101532.31;1740672;81;21260;-58
2023/01/14 03:32:50;;;;;;;41.68;10.72;;;;;;;1.30;68.16;101529.63;1740249;81;21217;-56
2023/01/14 03:35:54;;;;;;;;;;;;;;;1.32;68.18;101527.72;1739869;82;21197;-56
2023/01/14 03:39:06;;;;;;;35.35;10.80;;;;;;;1.32;68.13;101525.02;1740396;82;20204;-55
2023/01/14 03:42:19;;;;;;;35.38;10.70;;;;;;;1.27;68.15;101526.23;1741042;82;21271;-55
2023/01/14 03:45:36;;;;;;;29.32;9.98;;;;;;;1.28;68.26;101526.64;1740524;81;21217;-55
2023/01/14 03:48:43;;;;;;;26.15;9.95;;;;;;;1.23;67.98;101529.61;1741363;81;21375;-56
2023/01/14 03:52:06;;;;;;;23.12;9.48;;;;;;;1.13;68.00;101522.99;1740737;81;21220;-55
2023/01/14 03:55:18;;;;;;;;;;;;;;;1.15;68.14;101518.86;1743221;81;21225;-56
2023/01/14 03:58:29;;;;;;;27.00;9.70;;;;;;;1.15;68.18;101529.64;1738674;81;20216;-56
2023/01/14 04:01:49;;;;;;;30.15;10.08;;;;;;;1.11;68.20;101531.64;1741035;81;21165;-55
2023/01/14 04:04:55;;;;;;;36.50;11.60;;;;;;;1.13;68.36;101528.39;1740504;81;21263;-57
2023/01/14 04:08:02;;;;;;;28.92;9.78;;;;;;;1.16;68.39;101529.55;1740657;81;21197;-56
2023/01/14 04:11:08;;;;;;;33.60;10.72;;;;;;;1.16;68.28;101532.72;1737697;81;21753;-55
2023/01/14 04:17:40;;;;;;;23.65;9.03;;;;;;;1.19;68.34;101526.67;1740678;82;21193;-56
2023/01/14 04:20:46;;;;;;;21.87;9.40;;;;;;;1.21;68.29;101527.94;1740726;82;21193;-55
2023/01/14 04:23:52;;;;;;;32.53;12.37;;;;;;;1.10;68.03;101529.91;1740870;81;21276;-56
2023/01/14 04:26:57;;;;;;;31.50;11.40;;;;;;;1.11;68.18;101530.30;1706305;84;21200;-56
2023/01/14 04:30:02;;;;;;;31.33;10.65;;;;;;;1.13;68.17;101529.73;1740203;82;21205;-56
2023/01/14 04:33:08;;;;;;;28.30;10.85;;;;;;;1.15;68.25;101524.25;1707036;81;21236;-56
2023/01/14 04:36:12;;;;;;;36.25;10.58;;;;;;;1.14;68.12;101527.92;1741818;81;21240;-55
2023/01/14 04:39:19;;;;;;;28.38;10.93;;;;;;;1.04;68.08;101531.63;1734464;82;21209;-55
2023/01/14 04:42:30;;;;;;;34.00;13.60;;;;;;;1.07;68.23;101531.44;1705990;83;21244;-55
2023/01/14 04:45:36;;;;;;;34.60;13.30;;;;;;;1.09;68.18;101530.89;1741898;82;21197;-55
2023/01/14 04:48:44;;;;;;;30.15;11.68;;;;;;;1.13;68.14;101532.43;1706546;82;21208;-55
2023/01/14 04:51:49;;;;;;;31.90;10.60;;;;;;;1.14;68.06;101538.20;1733834;82;21161;-55
2023/01/14 04:54:56;;;;;;;25.80;10.20;;;;;;;1.18;68.15;101537.09;1706374;84;21204;-56
2023/01/14 04:58:02;;;;;;;29.00;12.47;;;;;;;1.19;68.10;101543.36;1742395;82;21390;-54
2023/01/14 05:01:08;;;;;;;48.70;22.07;;;;;;;1.21;68.24;101549.05;1742970;82;21272;-56
2023/01/14 05:04:16;;;;;;;53.65;19.45;;;;;;;1.23;68.28;101550.30;1706375;84;21214;-55
2023/01/14 05:07:22;;;;;;;77.45;31.12;;;;;;;1.23;68.26;101548.48;1742445;82;21225;-56
2023/01/14 05:10:29;;;;;;;74.85;25.23;;;;;;;1.25;68.27;101560.03;1706504;83;21200;-55
2023/01/14 05:13:34;;;;;;;43.00;19.62;;;;;;;1.28;68.27;101559.00;1742349;81;21193;-57
2023/01/14 05:16:41;;;;;;;92.45;37.78;;;;;;;1.29;68.30;101558.03;1742458;82;21204;-57
2023/01/14 05:19:47;;;;;;;81.85;28.83;;;;;;;1.33;68.36;101557.76;1706307;82;21736;-57
2023/01/14 05:22:51;;;;;;;35.15;14.75;;;;;;;1.36;68.40;101558.93;1734726;82;21757;-56
2023/01/14 05:25:58;;;;;;;47.45;20.82;;;;;;;1.37;68.35;101548.55;1706746;83;21200;-57
2023/01/14 05:29:03;;;;;;;78.52;35.52;;;;;;;1.39;68.33;101564.17;1734021;82;21358;-56
2023/01/14 05:32:12;;;;;;;84.62;35.98;;;;;;;1.38;68.31;101565.11;1706797;83;21334;-55
2023/01/14 05:35:18;;;;;;;51.40;21.48;;;;;;;1.36;68.20;101558.93;1734424;82;21398;-55
2023/01/14 05:38:25;;;;;;;59.63;20.80;;;;;;;1.27;68.08;101556.77;1740397;81;21185;-55
2023/01/14 05:41:32;;;;;;;76.07;34.65;;;;;;;1.24;68.12;101561.00;1740971;82;21249;-55
2023/01/14 05:48:01;;;;;;;55.00;23.25;;;;;;;1.30;68.32;101570.58;1770875;80;22218;-56
2023/01/14 05:51:10;;;;;;;56.15;25.40;;;;;;;1.31;68.34;101568.27;1778454;79;21182;-56
2023/01/14 05:54:15;;;;;;;52.35;22.65;;;;;;;1.29;68.25;101558.91;1770531;80;21232;-57
2023/01/14 05:57:22;;;;;;;58.05;26.35;;;;;;;1.26;68.22;101559.56;1771247;80;21181;-56
2023/01/14 06:07:15;;;;;;;64.77;29.95;;;;;;;1.28;68.26;101561.70;1769526;80;21754;-55
2023/01/14 06:10:24;;;;;;;47.75;19.50;;;;;;;1.30;68.27;101561.14;1769880;81;21193;-57
2023/01/14 06:13:34;;;;;;;77.10;33.83;;;;;;;1.33;68.29;101566.36;1769662;80;21204;-55
2023/01/14 06:16:41;;;;;;;67.62;29.82;;;;;;;1.30;68.21;101567.38;1770079;80;21185;-55
2023/01/14 06:19:47;;;;;;;46.53;18.37;;;;;;;1.27;68.19;101558.13;1771276;80;21205;-55
2023/01/14 06:22:54;;;;;;;32.67;14.60;;;;;;;1.32;68.30;101562.77;1769276;80;21197;-55
2023/01/14 06:26:00;;;;;;;24.92;11.18;;;;;;;1.37;68.32;101569.25;1769994;79;21244;-55
2023/01/14 06:29:08;;;;;;;29.27;12.88;;;;;;;1.41;68.36;101574.38;1769566;80;21209;-55
2023/01/14 06:32:13;;;;;;;31.27;12.20;;;;;;;1.47;68.38;101573.16;1770343;80;21245;-55
2023/01/14 06:35:19;;;;;;;31.68;13.10;;;;;;;1.51;68.42;101571.54;1767632;80;22140;-56
2023/01/14 06:38:26;;;;;;;35.60;14.58;;;;;;;1.56;68.45;101565.87;1761898;80;21193;-56
2023/01/14 06:41:34;;;;;;;25.72;11.80;;;;;;;1.61;68.45;101571.88;1771215;80;21217;-56
2023/01/14 06:44:40;;;;;;;27.02;12.15;;;;;;;1.59;68.22;101567.54;1771102;80;21189;-56
2023/01/14 06:47:48;;;;;;;31.73;13.98;;;;;;;1.58;68.27;101569.36;1771442;79;21637;-56
2023/01/14 06:50:55;;;;;;;27.15;11.75;;;;;;;1.62;68.35;101576.80;1770485;79;21209;-56
2023/01/14 06:54:02;;;;;;;35.33;11.83;;;;;;;1.65;68.37;101563.13;1770134;80;21256;-55
2023/01/14 06:57:08;;;;;;;38.15;11.55;;;;;;;1.67;68.39;101565.23;1770843;80;21178;-55
2023/01/14 07:00:16;;;;;;;31.30;12.33;;;;;;;1.72;68.33;101569.88;1750848;81;21189;-56
2023/01/14 07:03:23;;;;;;;33.98;12.28;;;;;;;1.74;68.33;101571.55;1771251;80;21185;-55
2023/01/14 07:06:30;;;;;;;35.85;12.73;;;;;;;1.77;68.35;101574.06;1770561;80;21181;-56
2023/01/14 07:09:36;;;;;;;30.25;11.33;;;;;;;1.79;68.26;101573.97;1770276;80;21280;-55
2023/01/14 07:12:41;;;;;;;29.35;11.12;;;;;;;1.81;68.31;101566.66;1738954;82;21289;-55
2023/01/14 07:15:51;;;;;;;27.67;10.72;;;;;;;1.85;68.34;101560.09;1739201;82;21201;-55
2023/01/14 07:18:57;;;;;;;37.90;12.68;;;;;;;1.89;68.42;101562.52;1751072;81;21217;-55
2023/01/14 07:22:02;;;;;;;41.20;14.80;;;;;;;1.91;68.37;101559.72;1745892;81;21792;-55
2023/01/14 07:25:07;;;;;;;29.15;12.40;;;;;;;1.88;68.16;101562.14;1770247;81;21605;-55
2023/01/14 07:28:14;;;;;;;37.28;11.35;;;;;;;1.86;68.21;101564.05;1770572;80;21181;-55
2023/01/14 07:31:20;;;;;;;26.97;10.43;;;;;;;1.91;68.24;101561.07;1770889;81;21201;-56
2023/01/14 07:34:28;;;;;;;33.45;12.90;;;;;;;1.92;68.26;101558.28;1771196;81;21359;-56
2023/01/14 07:37:35;;;;;;;70.83;25.27;;;;;;;1.97;68.33;101553.47;1769554;81;21248;-58
2023/01/14 07:40:41;;;;;;;81.53;31.37;;;;;;;2.01;68.32;101558.22;1771385;81;21252;-57
2023/01/14 07:43:48;;;;;;;54.25;19.92;;;;;;;2.00;68.22;101564.59;1770832;79;21276;-57
2023/01/14 07:46:54;;;;;;;56.75;20.50;;;;;;;1.87;68.03;101564.93;1762982;81;21706;-57
2023/01/14 07:50:00;;;;;;;46.70;17.42;;;;;;;1.89;68.18;101563.86;1770591;80;21252;-56
2023/01/14 07:53:07;;;;;;;108.17;45.60;;;;;;;1.97;68.36;101560.22;1770652;80;21229;-55
2023/01/14 07:56:14;;;;;;;36.77;16.35;;;;;;;1.97;68.16;101565.63;1769708;81;21196;-56
2023/01/14 07:59:19;;;;;;;29.40;12.65;;;;;;;1.98;68.21;101554.35;1745381;80;21259;-55
2023/01/14 08:02:25;;;;;;;28.40;12.53;;;;;;;2.04;68.36;101556.20;1770811;80;21232;-56
2023/01/14 08:05:30;;;;;;;70.08;26.50;;;;;;;2.13;68.49;101561.50;1767806;79;21229;-55
2023/01/14 08:08:37;;;;;;;47.40;17.92;;;;;;;2.23;68.58;101561.34;1739572;81;21361;-56
2023/01/14 08:11:44;;;;;;;36.68;13.38;;;;;;;2.30;68.61;101555.45;1740120;82;21194;-56
2023/01/14 08:14:50;;;;;;;33.02;12.78;;;;;;;2.32;68.53;101564.34;1741524;81;21503;-55
2023/01/14 08:17:56;;;;;;;27.60;12.80;;;;;;;2.34;68.38;101560.20;1739391;82;21757;-57
2023/01/14 08:21:05;;;;;;;30.77;13.48;;;;;;;2.32;68.40;101563.47;1740271;81;21170;-56
2023/01/14 08:24:10;;;;;;;33.02;12.47;;;;;;;2.34;68.37;101558.38;1740688;82;21260;-57
2023/01/14 08:27:15;;;;;;;27.93;12.58;;;;;;;2.37;68.33;101560.00;1742090;81;21303;-56
2023/01/14 08:30:24;;;;;;;27.95;12.15;;;;;;;2.42;68.37;101564.64;1767408;79;21306;-56
2023/01/14 08:33:29;;;;;;;30.75;11.30;;;;;;;2.43;68.32;101558.27;1762520;80;21725;-57
2023/01/14 08:36:35;;;;;;;30.40;11.97;;;;;;;2.46;68.33;101556.72;1770949;81;21776;-58
2023/01/14 08:39:41;;;;;;;31.65;11.90;;;;;;;2.54;68.43;101555.75;1750159;79;21623;-55
2023/01/14 08:42:49;;;;;;;34.00;12.03;;;;;;;2.61;68.40;101558.47;1740098;81;21278;-56
2023/01/14 08:45:56;;;;;;;30.45;11.05;;;;;;;2.67;68.34;101558.08;1740191;81;21286;-57
2023/01/14 08:49:01;;;;;;;31.70;12.55;;;;;;;2.66;68.20;101546.89;1777569;79;21243;-56
2023/01/14 08:52:08;;;;;;;31.23;12.33;;;;;;;2.67;68.28;101548.14;1804128;79;21199;-56
2023/01/14 08:55:17;;;;;;;25.45;12.40;;;;;;;2.74;68.35;101543.22;1803876;79;21239;-55
2023/01/14 08:58:23;;;;;;;32.45;11.48;;;;;;;2.77;68.27;101544.38;1804384;79;21200;-56
2023/01/14 09:01:33;;;;;;;26.57;11.70;;;;;;;2.82;68.30;101531.44;1804504;79;21180;-57
2023/01/14 09:04:40;;;;;;;30.85;12.23;;;;;;;2.87;68.36;101530.16;1739323;82;21197;-56
2023/01/14 09:17:59;;;;;;;29.20;12.03;;;;;;;2.87;68.01;101530.16;1762390;81;21205;-55
2023/01/14 09:21:04;;;;;;;29.60;11.43;;;;;;;2.89;68.03;101524.17;1769502;80;21209;-56
2023/01/14 09:24:13;;;;;;;25.88;11.03;;;;;;;2.88;67.88;101523.80;1770257;79;21277;-56
2023/01/14 09:27:19;;;;;;;24.25;11.28;;;;;;;2.80;67.69;101522.55;1769460;81;21778;-57
2023/01/14 09:30:24;;;;;;;20.90;11.10;;;;;;;2.68;67.76;101521.48;1769836;81;21267;-56
2023/01/14 09:33:31;;;;;;;30.27;12.88;;;;;;;2.64;67.76;101525.37;1762283;80;21275;-57
2023/01/14 09:36:37;;;;;;;30.32;13.18;;;;;;;2.70;68.07;101523.62;1742322;80;21793;-56
2023/01/14 09:39:42;;;;;;;27.50;13.08;;;;;;;2.84;68.20;101520.01;1737451;82;22072;-55
2023/01/14 09:42:50;;;;;;;27.75;13.28;;;;;;;2.90;68.01;101519.13;1745421;81;21441;-56
2023/01/14 09:46:06;;;;;;;25.60;12.82;;;;;;;3.03;68.09;101521.91;1742284;81;21221;-57
2023/01/14 09:49:12;;;;;;;32.42;12.43;;;;;;;3.10;68.00;101516.48;1739734;82;21784;-57
2023/01/14 09:52:34;;;;;;;29.30;11.85;;;;;;;3.09;67.91;101510.71;1761904;81;21745;-57
2023/01/14 09:56:01;;;;;;;29.37;11.33;;;;;;;3.13;67.97;101512.70;1770747;81;21212;-57
2023/01/14 09:59:28;;;;;;;26.80;11.35;;;;;;;3.24;68.17;101511.03;1765356;81;21235;-57
2023/01/14 10:02:54;;;;;;;31.60;12.88;;;;;;;3.38;68.30;101524.50;1762332;80;21268;-57
2023/01/14 10:06:16;;;;;;;24.37;11.33;;;;;;;3.47;68.26;101513.09;1754017;81;21748;-58
2023/01/14 10:09:35;;;;;;;29.12;11.90;;;;;;;3.58;68.32;101513.23;1769424;81;21293;-58
2023/01/14 10:12:48;;;;;;;24.70;12.20;;;;;;;3.58;68.19;101513.23;1770301;80;21177;-57
2023/01/14 10:16:05;;;;;;;34.98;11.05;;;;;;;3.52;67.83;101505.49;1769955;80;21232;-58
2023/01/14 10:19:28;;;;;;;27.20;11.00;;;;;;;3.45;67.73;101516.38;1771960;80;21201;-58
2023/01/14 10:22:51;;;;;;;22.45;10.72;;;;;;;3.47;67.89;101514.91;1775184;80;21188;-58
2023/01/14 10:26:01;;;;;;;30.25;11.30;;;;;;;3.51;67.88;101509.19;1761776;80;21193;-58
2023/01/14 10:29:12;;;;;;;23.70;10.03;;;;;;;3.52;67.92;101502.79;1765595;81;21244;-58
2023/01/14 10:32:21;;;;;;;27.27;10.82;;;;;;;3.57;68.02;101503.34;1771435;80;21220;-58
2023/01/14 10:35:46;;;;;;;22.80;10.28;;;;;;;3.63;68.05;101490.74;1772441;80;21220;-58
2023/01/14 10:38:51;;;;;;;24.85;10.65;;;;;;;3.69;68.11;101490.83;1763914;81;21791;-57
2023/01/14 10:42:00;;;;;;;33.55;10.95;;;;;;;3.71;68.03;101491.59;1771530;79;21177;-58
2023/01/14 10:45:05;;;;;;;23.70;9.60;;;;;;;3.71;67.92;101494.30;1770212;81;21228;-58
2023/01/14 10:48:13;;;;;;;27.55;11.63;;;;;;;3.70;67.89;101492.07;1771114;80;21174;-58
2023/01/14 10:51:49;;;;;;;24.15;10.03;;;;;;;3.70;67.77;101483.95;1763350;81;21193;-58
2023/01/14 10:55:18;;;;;;;26.35;10.65;;;;;;;3.63;67.69;101481.27;1769909;80;21189;-59
2023/01/14 10:58:35;;;;;;;26.73;11.15;;;;;;;3.62;67.80;101482.25;1781818;80;21809;-59
2023/01/14 11:01:49;;;;;;;22.87;11.80;;;;;;;3.65;67.92;101479.33;1769914;81;21738;-59
2023/01/14 11:04:57;;;;;;;26.97;11.97;;;;;;;3.69;68.04;101475.45;1755147;81;21772;-59
2023/01/14 11:08:33;;;;;;;38.85;12.13;;;;;;;3.72;67.96;101475.72;1756637;81;21740;-59
2023/01/14 11:11:46;;;;;;;29.67;12.25;;;;;;;3.78;68.09;101466.69;1757304;80;21188;-59
2023/01/14 11:14:52;;;;;;;23.25;10.70;;;;;;;3.89;68.07;101474.94;1759934;80;21193;-59
2023/01/14 11:18:00;;;;;;;28.12;11.05;;;;;;;3.83;67.67;101470.42;1750402;80;21632;-58
2023/01/14 11:21:25;;;;;;;23.90;11.38;;;;;;;3.81;67.71;101469.17;1739527;82;21203;-58
2023/01/14 11:24:44;;;;;;;26.30;10.67;;;;;;;3.85;67.89;101471.19;1739704;81;21270;-59
2023/01/14 11:27:54;;;;;;;33.30;10.98;;;;;;;3.85;67.81;101468.48;1739663;82;21191;-58
2023/01/14 11:31:01;;;;;;;29.27;9.98;;;;;;;3.80;67.65;101466.58;1740505;82;21194;-59
2023/01/14 11:34:07;;;;;;;23.45;8.80;;;;;;;3.80;67.79;101462.05;1740154;81;21230;-58
2023/01/14 11:37:20;;;;;;;20.97;8.38;;;;;;;3.77;67.77;101459.55;1739741;82;21270;-59
2023/01/14 11:44:02;;;;;;;27.17;9.85;;;;;;;3.82;67.96;101472.77;1740028;81;21222;-58
2023/01/14 11:47:22;;;;;;;21.75;10.58;;;;;;;3.92;68.00;101478.78;1739887;82;21807;-58
2023/01/14 11:50:35;;;;;;;26.73;11.03;;;;;;;3.89;67.76;101474.94;1739940;81;21230;-58
2023/01/14 11:53:58;;;;;;;23.35;10.28;;;;;;;3.87;67.60;101477.38;1740762;81;21218;-58
2023/01/14 11:57:04;;;;;;;31.35;10.43;;;;;;;3.83;67.62;101480.78;1744809;81;21165;-57
2023/01/14 12:00:10;;;;;;;28.70;11.00;;;;;;;3.77;67.58;101480.34;1739660;82;21285;-59
2023/01/14 12:03:18;;;;;;;23.70;9.60;;;;;;;3.71;67.69;101486.19;1736582;81;21188;-58
2023/01/14 12:06:28;;;;;;;22.32;10.30;;;;;;;3.74;67.82;101487.32;1734459;82;21769;-58
2023/01/14 12:09:41;;;;;;;25.52;9.85;;;;;;;3.77;67.84;101496.11;1734432;81;21725;-58
2023/01/14 12:19:52;;;;;;;24.05;9.73;;;;;;;3.82;67.96;101485.80;1734417;82;21188;-58
2023/01/14 12:23:14;;;;;;;22.62;9.93;;;;;;;3.83;67.96;101488.03;1768793;79;21261;-58
2023/01/14 12:26:27;;;;;;;25.27;9.98;;;;;;;3.84;67.99;101487.05;1768965;80;21558;-58
2023/01/14 12:29:38;;;;;;;22.50;10.00;;;;;;;3.85;67.90;101484.73;1768757;80;22217;-58
2023/01/14 12:32:43;;;;;;;19.02;9.28;;;;;;;3.82;67.82;101489.86;1759491;80;22151;-57
2023/01/14 12:36:17;;;;;;;27.77;10.18;;;;;;;3.75;67.72;101492.62;1739010;82;21201;-58
2023/01/14 12:46:26;;;;;;;24.45;8.90;;;;;;;3.59;67.86;101493.77;1738819;82;21247;-58
2023/01/14 12:49:32;;;;;;;21.62;9.28;;;;;;;3.59;67.92;101489.70;1738841;82;21232;-58
2023/01/14 12:52:40;;;;;;;19.10;8.70;;;;;;;3.59;67.95;101494.65;1739588;82;21185;-58
2023/01/14 12:55:48;;;;;;;21.50;9.88;;;;;;;3.57;67.92;101493.88;1740025;81;21273;-58
2023/01/14 12:59:08;;;;;;;31.62;10.60;;;;;;;3.52;67.76;101501.44;1740143;82;21284;-59
2023/01/14 13:02:28;;;;;;;21.20;10.13;;;;;;;3.48;67.79;101493.16;1739990;82;21189;-57
2023/01/14 13:05:45;;;;;;;22.42;9.40;;;;;;;3.51;67.93;101502.42;1740220;81;21241;-58
2023/01/14 13:08:57;;;;;;;25.08;10.60;;;;;;;3.51;67.94;101496.12;1759437;81;21758;-59
2023/01/14 13:12:02;;;;;;;22.62;9.30;;;;;;;3.47;67.89;101493.27;1745133;81;21185;-59
2023/01/14 13:15:15;;;;;;;18.77;9.68;;;;;;;3.46;67.94;101501.86;1760167;81;21192;-58
2023/01/14 13:18:46;;;;;;;31.05;11.22;;;;;;;3.46;67.99;101496.44;1760427;81;21204;-58
2023/01/14 13:22:06;;;;;;;28.67;11.73;;;;;;;3.46;67.92;101492.86;1760305;81;21189;-58
2023/01/14 13:25:23;;;;;;;21.62;10.23;;;;;;;3.39;67.78;101491.55;1760866;81;21221;-58
2023/01/14 13:28:37;;;;;;;28.10;10.93;;;;;;;3.38;67.87;101500.15;1754459;81;21170;-60
2023/01/14 13:31:45;;;;;;;25.27;9.35;;;;;;;3.30;67.88;101499.80;1770727;80;21745;-58
2023/01/14 13:34:51;;;;;;;36.83;11.57;;;;;;;3.29;67.99;101498.07;1770887;80;21266;-59
2023/01/14 13:37:57;;;;;;;33.08;11.75;;;;;;;3.23;67.89;101492.20;1733698;82;21382;-57
2023/01/14 13:41:08;;;;;;;22.50;11.48;;;;;;;3.19;67.94;101494.23;1740428;82;21225;-59
2023/01/14 13:44:39;;;;;;;31.10;14.00;;;;;;;3.11;67.89;101500.63;1741475;81;21316;-59
2023/01/14 13:47:45;;;;;;;26.75;11.05;;;;;;;3.06;68.01;101498.23;1745757;81;21162;-58
2023/01/14 13:50:52;;;;;;;24.57;10.58;;;;;;;3.06;68.10;101501.41;1741058;82;21392;-58
2023/01/14 13:54:09;;;;;;;22.32;10.98;;;;;;;3.06;68.15;101507.70;1740354;81;21194;-59
2023/01/14 13:57:20;;;;;;;20.57;11.40;;;;;;;3.08;68.20;101505.40;1740355;82;21193;-59
2023/01/14 14:00:33;;;;;;;30.30;13.08;;;;;;;3.08;68.23;101498.64;1740167;81;21822;-59
2023/01/14 14:03:45;;;;;;;29.27;13.72;;;;;;;3.08;68.25;101505.40;1739810;81;21175;-59
2023/01/14 14:06:51;;;;;;;28.30;12.40;;;;;;;3.07;68.24;101503.17;1740196;82;22079;-58
2023/01/14 14:09:56;;;;;;;24.05;11.68;;;;;;;3.06;68.18;101506.83;1753310;80;21760;-58
2023/01/14 14:16:43;;;;;;;25.95;11.68;;;;;;;3.03;68.12;101509.26;1706238;82;21192;-58
2023/01/14 14:20:00;;;;;;;26.95;11.20;;;;;;;3.00;68.06;101511.29;1691366;85;21733;-59
2023/01/14 14:23:07;;;;;;;28.05;11.97;;;;;;;2.96;68.08;101510.65;1691410;85;21786;-58
2023/01/14 14:26:23;;;;;;;24.98;11.73;;;;;;;2.95;68.09;101514.77;1691675;84;21194;-58
2023/01/14 14:29:29;;;;;;;35.65;13.03;;;;;;;2.93;68.12;101515.38;1691695;85;21236;-58
2023/01/14 14:32:36;;;;;;;27.73;12.45;;;;;;;2.92;68.14;101528.02;1691825;85;21217;-58
2023/01/14 14:35:48;;;;;;;34.13;12.85;;;;;;;2.90;68.15;101522.34;1690599;85;21260;-59
2023/01/14 14:38:59;;;;;;;28.80;12.65;;;;;;;2.87;68.11;101517.14;1688855;85;21695;-58
2023/01/14 14:42:09;;;;;;;26.35;12.35;;;;;;;2.78;67.97;101520.41;1737770;82;21695;-58
2023/01/14 14:45:35;;;;;;;23.62;10.58;;;;;;;2.76;68.13;101520.52;1730679;81;21212;-58
2023/01/14 14:48:44;;;;;;;29.75;14.07;;;;;;;2.69;67.98;101523.72;1749719;80;21265;-58
2023/01/14 14:51:56;;;;;;;37.73;16.77;;;;;;;2.62;68.01;101529.11;1739541;82;21737;-57
2023/01/14 14:55:18;;;;;;;39.83;16.48;;;;;;;2.62;68.12;101530.47;1739686;82;21217;-58
2023/01/14 14:58:26;;;;;;;84.45;34.18;;;;;;;2.62;68.13;101531.34;1739822;82;21347;-57
2023/01/14 15:01:41;;;;;;;58.20;24.60;;;;;;;2.64;68.19;101540.70;1739472;82;21650;-59
2023/01/14 15:04:48;;;;;;;41.90;19.80;;;;;;;2.64;68.19;101540.70;1740691;82;21757;-59
2023/01/14 15:07:55;;;;;;;31.33;12.35;;;;;;;2.63;68.13;101538.98;1731460;82;21383;-58
2023/01/14 15:11:01;;;;;;;24.52;12.33;;;;;;;2.63;68.17;101538.47;1739211;81;21828;-59
2023/01/14 15:14:07;;;;;;;22.50;10.53;;;;;;;2.65;68.20;101541.08;1731081;82;21233;-59
2023/01/14 15:17:14;;;;;;;23.90;12.85;;;;;;;2.66;68.25;101546.89;1739514;82;21726;-59
2023/01/14 15:20:24;;;;;;;24.00;13.98;;;;;;;2.67;68.19;101540.51;1766910;80;21199;-58
2023/01/14 15:23:29;;;;;;;30.72;13.55;;;;;;;2.66;68.23;101536.92;1766570;81;21197;-59
2023/01/14 15:26:41;;;;;;;28.60;14.25;;;;;;;2.62;68.06;101537.22;1767239;81;21236;-59